Yucca Valley, CA

6:21 PM PST on February 19, 2017 (GMT -0800)
Western Hills Estates | | Change Station
Active Advisory: Small Craft Advisory

Elev 3924 ft 34.15 °N, 116.43 °W | Updated 0 second ago

Partly Cloudy
Partly Cloudy
45.8 °F
Feels Like 40 °F
N
13.0
Wind Variable Wind from SW
Gusts 19.0 mph

Today
High -- | Low -- °F
--% Chance of Precip.
Yesterday
High -- | Low -- °F
Precip. -- in
Pressure 29.94 in
Visibility 10.0 miles
Clouds Few 4000 ft
Mostly Cloudy 6000 ft
Windchill 40 °F
Dew Point 42 °F
Humidity 86%
Rainfall 0.00 in
Snow Depth Not available.
6:25 AM 5:33 PM
Last Quarter, 38% visible
METAR KNXP 200156Z 11004KT 10SM FEW040 BKN060 15/07 A3000 RMK AO2 SLP139 T01500067
Pressure 29.94 in
Visibility 10.0 miles
Clouds Few 4000 ft
Mostly Cloudy 6000 ft
Windchill 40 °F
Dew Point 42 °F
Humidity 86%
Rainfall 0.00 in
Snow Depth Not available.
6:25 AM 5:33 PM
Last Quarter, 38% visible
METAR KNXP 200156Z 11004KT 10SM FEW040 BKN060 15/07 A3000 RMK AO2 SLP139 T01500067

Get Your Daily Forecast Email!

Thanks for signing up!

Be on the lookout for a verification email in your inbox.

You'll start receiving the daily forecast at 8 AM.

×

10-Day Weather Forecast

Almanac

Astronomy

Feb. 19, 2017 Rise Set
Actual Time
Civil Twilight
Nautical Twilight
Astronomical Twilight
Moon
Length of Visible Light
Length of Day
Tomorrow will be .
, % of the Moon is Illuminated

Today's Extremes

State Highs State Lows

Community

WunderPhotos

Upload Photos

1,962,540 photos uploaded!

WunderBlog® & News

Nearby

Air Quality

  Air Quality AQ Index Pollutant
Not available.

Snow Depth

Station Depth Elevation

Earthquake Activity

City Distance Mag. Time & Date
Minimum magnitude displayed is 2.5.

Coastal Water Temperatures

Place Temperature

Stations

Nearby Weather Stations

Station Location Temp. Windchill Dew Point Humidity Wind Precip. Elev Updated Type
                   

Watches & Warnings

Small Craft Advisory
Issued: 11:34 AM PST Feb. 19, 2017 – National Weather Service

... Small Craft Advisory remains in effect until 10 PM PST this
evening...

* winds... northwest 10 to 15 gusting to 20 kt.

* Combined seas... 8 to 12 feet with a dominant period of 13
seconds.

* Impacts... high seas will create hazardous conditions for small
craft.

* Outlook... winds and seas will gradually diminish late today.

Precautionary/preparedness actions...

A Small Craft Advisory means that wind speeds of 21 to 33 knots
are expected to produce hazardous wave conditions to small craft.
Inexperienced mariners... especially those operating smaller
vessels should avoid navigating in these conditions.



Harrison